Time;durP1;ratioP1;P1;durP2;ratioP2;P2;SDS_P1;SDS_P2;PMS_P1;PMS_P2;Temp;Humidity;BMP_temperature;BMP_pressure;BME280_temperature;BME280_humidity;BME280_pressure;Samples;Min_cycle;Max_cycle;Signal;HPM_P1;HPM_P2
2023/01/09 00:00:42;;;;;;;;;;;;;;;13.09;76.88;98985.97;1051609;28;1111;-65
2023/01/09 00:01:33;;;;;;;;;;;;;;;13.10;76.02;98992.16;1051794;28;1226;-66
2023/01/09 00:02:23;;;;;;;;;;;;;;;13.07;76.21;98982.63;1048705;28;1101;-66
2023/01/09 00:03:14;;;;;;;;;;;;;;;13.07;76.48;98987.16;1048256;28;665;-66
2023/01/09 00:04:04;;;;;;;;;;;;;;;13.06;76.47;98988.13;1049676;28;1545;-66
2023/01/09 00:04:55;;;;;;;;;;;;;;;13.06;76.90;98990.81;1048270;28;702;-66
2023/01/09 00:05:45;;;;;;;;;;;;;;;13.06;76.89;98986.31;1049333;28;700;-66
2023/01/09 00:06:35;;;;;;;;;;;;;;;13.08;76.31;98988.78;1047626;28;649;-66
2023/01/09 00:07:26;;;;;;;;;;;;;;;13.09;76.30;98990.47;1048320;28;680;-66
2023/01/09 00:08:17;;;;;;;;;;;;;;;13.08;76.64;98988.78;1048644;28;670;-65
2023/01/09 00:09:08;;;;;;;;;;;;;;;13.07;76.48;98989.81;1051607;28;1139;-66
2023/01/09 00:09:58;;;;;;;;;;;;;;;13.08;76.80;98988.78;1051918;28;684;-65
2023/01/09 00:10:48;;;;;;;;;;;;;;;13.06;76.30;98993.50;1051780;28;610;-65
2023/01/09 00:11:39;;;;;;;;;;;;;;;13.06;76.97;99001.50;1051780;28;681;-65
2023/01/09 00:12:29;;;;;;;;;;;;;;;13.07;76.35;98997.84;1051286;28;1425;-65
2023/01/09 00:13:20;;;;;;;;;;;;;;;13.08;76.80;98988.78;1052330;28;765;-65
2023/01/09 00:14:10;;;;;;;;;;;;;;;13.08;76.12;98994.13;1051454;28;1257;-66
2023/01/09 00:15:00;;;;;;;;;;;;;;;13.06;77.11;98993.50;1050859;28;689;-65
2023/01/09 00:15:51;;;;;;;;;;;;;;;13.08;76.49;98996.81;1051654;28;1131;-66
2023/01/09 00:16:41;;;;;;;;;;;;;;;13.08;76.78;98996.81;1051668;28;785;-65
2023/01/09 00:17:32;;;;;;;;;;;;;;;13.07;76.29;98998.69;1051735;28;1198;-66
2023/01/09 00:18:22;;;;;;;;;;;;;;;13.07;76.56;98992.50;1048084;28;693;-66
2023/01/09 00:19:13;;;;;;;;;;;;;;;13.08;76.75;98994.97;1047655;28;670;-67
2023/01/09 00:20:03;;;;;;;;;;;;;;;13.07;76.88;98998.69;1048158;28;678;-66
2023/01/09 00:20:53;;;;;;;;;;;;;;;13.05;76.58;98995.31;1052392;28;1259;-66
2023/01/09 00:21:44;;;;;;;;;;;;;;;13.06;76.45;98994.31;1049133;28;684;-65
2023/01/09 00:22:34;;;;;;;;;;;;;;;13.07;76.35;98989.81;1051041;28;1341;-66
2023/01/09 00:23:25;;;;;;;;;;;;;;;13.08;77.01;98991.47;1048525;28;673;-66
2023/01/09 00:24:15;;;;;;;;;;;;;;;13.07;76.87;98993.34;1052175;28;666;-66
2023/01/09 00:25:06;;;;;;;;;;;;;;;13.09;76.33;98995.81;1053143;28;716;-66
2023/01/09 00:25:56;;;;;;;;;;;;;;;13.07;76.90;98993.34;1052122;28;709;-66
2023/01/09 00:26:46;;;;;;;;;;;;;;;13.05;76.34;98997.16;1052929;28;1359;-66
2023/01/09 00:27:37;;;;;;;;;;;;;;;13.06;76.49;98990.81;1052533;28;981;-66
2023/01/09 00:28:27;;;;;;;;;;;;;;;13.05;76.67;98992.66;1049382;28;625;-66
2023/01/09 00:29:18;;;;;;;;;;;;;;;13.06;76.47;99001.50;1051666;28;1007;-66
2023/01/09 00:30:08;;;;;;;;;;;;;;;13.06;76.80;98996.16;1052260;28;636;-66
2023/01/09 00:30:59;;;;;;;;;;;;;;;13.06;76.48;98999.69;1052463;28;718;-66
2023/01/09 00:31:49;;;;;;;;;;;;;;;13.07;76.90;98995.16;1049033;28;637;-66
2023/01/09 00:32:39;;;;;;;;;;;;;;;13.04;77.00;98996.31;1051620;28;1515;-66
2023/01/09 00:33:30;;;;;;;;;;;;;;;13.06;76.69;98998.84;1049406;28;1914;-66
2023/01/09 00:34:20;;;;;;;;;;;;;;;13.04;76.51;98998.16;1048675;28;1106;-66
2023/01/09 00:35:11;;;;;;;;;;;;;;;13.06;77.00;98993.50;1052551;28;653;-66
2023/01/09 00:36:01;;;;;;;;;;;;;;;13.04;76.51;98993.66;1050791;28;1123;-66
2023/01/09 00:36:54;;;;;;;;;;;;;;;13.07;77.04;98990.66;1052950;28;688;-66
2023/01/09 00:37:44;;;;;;;;;;;;;;;13.07;76.64;98992.50;1053486;28;727;-66
2023/01/09 00:38:36;;;;;;;;;;;;;;;13.08;76.85;98988.78;1052296;28;1189;-66
2023/01/09 00:39:26;;;;;;;;;;;;;;;13.09;76.57;99002.00;1048815;28;583;-66
2023/01/09 00:40:17;;;;;;;;;;;;;;;13.06;77.05;98991.66;1048829;28;723;-66
2023/01/09 00:41:07;;;;;;;;;;;;;;;13.07;76.24;98997.84;1049038;28;633;-66
2023/01/09 00:41:58;;;;;;;;;;;;;;;13.07;76.30;98987.16;1048603;28;750;-65
2023/01/09 00:42:48;;;;;;;;;;;;;;;13.04;77.10;98987.47;1052632;28;1695;-65
2023/01/09 00:43:38;;;;;;;;;;;;;;;13.06;76.92;98991.66;1050596;28;677;-65
2023/01/09 00:44:29;;;;;;;;;;;;;;;13.04;77.00;98988.28;1052444;28;1135;-66
2023/01/09 00:45:20;;;;;;;;;;;;;;;13.03;76.83;98986.63;1052238;28;717;-66
2023/01/09 00:46:10;;;;;;;;;;;;;;;13.05;76.53;98994.47;1053398;28;1154;-66
2023/01/09 00:47:00;;;;;;;;;;;;;;;13.06;76.97;98991.66;1052347;28;746;-66
2023/01/09 00:47:51;;;;;;;;;;;;;;;13.04;76.69;98987.47;1053109;28;688;-66
2023/01/09 00:48:41;;;;;;;;;;;;;;;13.06;76.91;98988.13;1048230;28;809;-65
2023/01/09 00:49:32;;;;;;;;;;;;;;;13.05;76.23;98986.47;1049378;28;646;-66
2023/01/09 00:50:22;;;;;;;;;;;;;;;13.03;76.48;98993.81;1049364;28;681;-66
2023/01/09 00:51:13;;;;;;;;;;;;;;;13.03;77.08;98991.97;1048182;28;716;-66
2023/01/09 00:52:03;;;;;;;;;;;;;;;13.03;76.78;98991.97;1050796;28;1162;-65
2023/01/09 00:52:54;;;;;;;;;;;;;;;13.05;76.57;98992.66;1052325;28;1482;-65
2023/01/09 00:53:44;;;;;;;;;;;;;;;13.06;76.44;98997.00;1051892;28;1951;-66
2023/01/09 00:54:34;;;;;;;;;;;;;;;13.05;76.46;98995.31;1052483;28;638;-67
2023/01/09 00:55:26;;;;;;;;;;;;;;;13.05;76.45;98992.66;1044752;28;645;-67
2023/01/09 00:56:16;;;;;;;;;;;;;;;13.05;76.59;98999.84;1043810;28;949;-67
2023/01/09 00:57:07;;;;;;;;;;;;;;;13.04;76.53;98995.47;1040576;28;677;-67
2023/01/09 00:57:57;;;;;;;;;;;;;;;13.03;76.73;98991.13;1041766;28;1017;-67
2023/01/09 00:58:47;;;;;;;;;;;;;;;13.03;76.96;98993.81;1044589;28;729;-67
2023/01/09 00:59:38;;;;;;;;;;;;;;;13.02;76.70;98995.63;1043974;28;961;-67
2023/01/09 01:00:28;;;;;;;;;;;;;;;13.03;76.92;98997.31;1043999;28;595;-67
2023/01/09 01:01:19;;;;;;;;;;;;;;;13.01;77.13;98996.63;1044217;28;754;-66
2023/01/09 01:02:09;;;;;;;;;;;;;;;13.03;76.35;98997.31;1042686;28;1353;-66
2023/01/09 01:03:00;;;;;;;;;;;;;;;13.04;76.86;99003.50;1043991;28;706;-67
2023/01/09 01:03:50;;;;;;;;;;;;;;;13.03;77.24;99001.81;1040902;28;610;-66
2023/01/09 01:08:08;;;;;;;;;;;;;;;13.02;76.51;99000.16;1041042;28;681;-67
2023/01/09 01:08:59;;;;;;;;;;;;;;;13.01;76.96;98996.63;1039947;28;634;-67
2023/01/09 01:09:49;;;;;;;;;;;;;;;13.00;76.72;99002.13;1044136;28;1140;-67
2023/01/09 01:10:39;;;;;;;;;;;;;;;13.00;77.10;98994.13;1045127;28;650;-67
2023/01/09 01:11:30;;;;;;;;;;;;;;;13.00;77.06;99002.97;1043484;28;1214;-66
2023/01/09 01:12:20;;;;;;;;;;;;;;;13.00;76.83;98989.63;1043595;28;1733;-67
2023/01/09 01:13:11;;;;;;;;;;;;;;;12.99;76.89;98993.28;1041399;28;645;-66
2023/01/09 01:14:01;;;;;;;;;;;;;;;13.00;76.59;98991.44;1042244;28;1172;-66
2023/01/09 01:14:52;;;;;;;;;;;;;;;13.00;77.24;98997.63;1045086;28;614;-67
2023/01/09 01:15:42;;;;;;;;;;;;;;;13.00;76.58;99004.81;1042291;28;945;-67
2023/01/09 01:16:32;;;;;;;;;;;;;;;13.02;76.53;99000.16;1044475;28;1576;-67
2023/01/09 01:17:23;;;;;;;;;;;;;;;13.03;76.30;98993.81;1044809;28;754;-66
2023/01/09 01:18:13;;;;;;;;;;;;;;;13.02;76.36;98994.81;1041006;28;697;-66
2023/01/09 01:19:04;;;;;;;;;;;;;;;13.02;76.57;98994.81;1044542;28;734;-67
2023/01/09 01:19:55;;;;;;;;;;;;;;;12.99;76.60;98990.59;1040906;28;681;-66
2023/01/09 01:20:45;;;;;;;;;;;;;;;12.99;76.98;98990.59;1040093;28;810;-66
2023/01/09 01:21:36;;;;;;;;;;;;;;;12.98;77.04;98994.28;1042326;28;1210;-66
2023/01/09 01:22:26;;;;;;;;;;;;;;;12.98;76.71;98994.28;1040659;28;1004;-66
2023/01/09 01:23:16;;;;;;;;;;;;;;;13.00;77.39;98999.47;1044582;28;666;-66
2023/01/09 01:24:07;;;;;;;;;;;;;;;13.00;77.16;98996.78;1043706;28;704;-66
2023/01/09 01:24:57;;;;;;;;;;;;;;;13.00;76.46;99000.31;1044136;28;792;-66
2023/01/09 01:25:48;;;;;;;;;;;;;;;13.01;76.74;98998.47;1043885;28;1075;-66
2023/01/09 01:26:38;;;;;;;;;;;;;;;13.00;76.52;98997.63;1044642;28;681;-66
2023/01/09 01:27:28;;;;;;;;;;;;;;;13.03;76.43;99002.66;1042343;28;1091;-66
2023/01/09 01:28:19;;;;;;;;;;;;;;;13.01;76.85;98999.31;1044633;28;765;-66
2023/01/09 01:29:09;;;;;;;;;;;;;;;13.02;76.38;99003.66;1041206;28;677;-67
2023/01/09 01:30:00;;;;;;;;;;;;;;;13.01;76.93;98995.78;1041402;28;699;-66
2023/01/09 01:30:50;;;;;;;;;;;;;;;13.02;76.96;99001.00;1040004;28;736;-66
2023/01/09 01:31:41;;;;;;;;;;;;;;;13.00;76.88;99007.50;1041726;28;703;-66
2023/01/09 01:32:31;;;;;;;;;;;;;;;12.97;76.69;99008.63;1043845;28;650;-66
2023/01/09 01:33:21;;;;;;;;;;;;;;;12.99;76.75;99006.66;1040739;28;725;-66
2023/01/09 01:34:12;;;;;;;;;;;;;;;12.98;77.14;99006.81;1041614;28;567;-66
2023/01/09 01:35:02;;;;;;;;;;;;;;;12.99;77.12;99013.84;1043910;28;783;-66
2023/01/09 01:35:53;;;;;;;;;;;;;;;12.97;77.04;99011.31;1043929;28;1103;-66
2023/01/09 01:36:43;;;;;;;;;;;;;;;12.98;76.76;99010.31;1044638;28;845;-66
2023/01/09 01:37:33;;;;;;;;;;;;;;;13.00;77.08;99002.13;1043108;28;1190;-67
2023/01/09 01:38:24;;;;;;;;;;;;;;;13.00;76.71;99007.50;1041073;28;657;-66
2023/01/09 01:39:14;;;;;;;;;;;;;;;12.98;77.07;99004.97;1040779;28;713;-66
2023/01/09 01:40:05;;;;;;;;;;;;;;;12.98;76.79;99002.31;1040261;28;1111;-66
2023/01/09 01:40:55;;;;;;;;;;;;;;;12.99;77.16;99011.16;1040179;28;576;-67
2023/01/09 01:41:46;;;;;;;;;;;;;;;13.00;77.40;99008.31;1043232;28;1099;-66
2023/01/09 01:42:36;;;;;;;;;;;;;;;13.01;76.86;99009.16;1044694;28;765;-66
2023/01/09 01:43:26;;;;;;;;;;;;;;;12.98;76.70;99007.66;1041837;28;1052;-66
2023/01/09 01:44:17;;;;;;;;;;;;;;;12.98;76.91;99004.97;1044523;28;773;-66
2023/01/09 01:45:07;;;;;;;;;;;;;;;12.98;77.28;99007.66;1042933;28;1154;-66
2023/01/09 01:45:58;;;;;;;;;;;;;;;12.97;76.79;99007.81;1044587;28;725;-66
2023/01/09 01:46:48;;;;;;;;;;;;;;;12.98;76.88;99013.00;1040351;28;634;-66
2023/01/09 01:47:39;;;;;;;;;;;;;;;12.98;76.98;99013.00;1041308;28;766;-66
2023/01/09 01:48:29;;;;;;;;;;;;;;;13.00;76.60;99013.69;1040846;28;631;-67
2023/01/09 01:49:20;;;;;;;;;;;;;;;12.98;77.26;99009.47;1043002;28;742;-66
2023/01/09 01:50:10;;;;;;;;;;;;;;;12.99;76.44;99012.00;1043508;28;753;-66
2023/01/09 01:51:00;;;;;;;;;;;;;;;12.99;77.04;99021.84;1043549;28;850;-66
2023/01/09 01:51:51;;;;;;;;;;;;;;;13.00;77.43;99019.03;1044525;28;720;-66
2023/01/09 01:52:41;;;;;;;;;;;;;;;13.00;77.14;99023.53;1043975;28;1661;-66
2023/01/09 01:53:32;;;;;;;;;;;;;;;13.00;76.69;99020.84;1044641;28;1663;-67
2023/01/09 01:54:22;;;;;;;;;;;;;;;12.97;77.31;99018.50;1040857;28;709;-67
2023/01/09 01:55:13;;;;;;;;;;;;;;;12.97;76.71;99023.84;1045766;28;1292;-67
2023/01/09 01:56:03;;;;;;;;;;;;;;;12.99;76.82;99021.84;1049003;28;626;-66
2023/01/09 01:56:55;;;;;;;;;;;;;;;12.99;77.20;99027.19;1051533;28;1185;-66
2023/01/09 01:57:46;;;;;;;;;;;;;;;12.99;76.74;99019.19;1050288;28;1118;-67
2023/01/09 01:58:36;;;;;;;;;;;;;;;12.99;77.43;99027.19;1051998;28;701;-66
2023/01/09 01:59:27;;;;;;;;;;;;;;;12.99;76.60;99024.53;1050683;28;1095;-66
2023/01/09 02:00:17;;;;;;;;;;;;;;;12.97;76.85;99024.69;1051988;28;1639;-66
2023/01/09 02:01:07;;;;;;;;;;;;;;;12.97;76.57;99031.88;1051620;28;752;-66
2023/01/09 02:01:58;;;;;;;;;;;;;;;12.98;77.05;99025.53;1051558;28;1026;-66
2023/01/09 02:02:48;;;;;;;;;;;;;;;12.96;77.19;99028.34;1051352;28;1184;-66
2023/01/09 02:03:39;;;;;;;;;;;;;;;12.96;76.72;99027.50;1052681;28;745;-66
2023/01/09 02:04:29;;;;;;;;;;;;;;;12.96;76.76;99035.53;1049015;28;630;-66
2023/01/09 02:05:20;;;;;;;;;;;;;;;12.97;77.24;99029.19;1050117;28;765;-67
2023/01/09 02:06:10;;;;;;;;;;;;;;;12.97;76.47;99030.03;1052611;28;1214;-66
2023/01/09 02:07:01;;;;;;;;;;;;;;;12.96;76.96;99030.19;1052034;28;715;-66
2023/01/09 02:07:51;;;;;;;;;;;;;;;12.97;77.42;99034.53;1052569;28;1202;-67
2023/01/09 02:08:41;;;;;;;;;;;;;;;12.98;77.66;99030.88;1051787;28;964;-66
2023/01/09 02:09:32;;;;;;;;;;;;;;;12.97;77.08;99034.53;1052273;28;681;-66
2023/01/09 02:10:22;;;;;;;;;;;;;;;12.96;77.19;99038.22;1051554;28;1544;-66
2023/01/09 02:11:13;;;;;;;;;;;;;;;12.97;76.78;99034.53;1047339;28;610;-66
2023/01/09 02:12:03;;;;;;;;;;;;;;;12.97;77.24;99031.88;1048837;28;1123;-66
2023/01/09 02:12:54;;;;;;;;;;;;;;;12.97;77.34;99035.38;1051995;28;681;-66
2023/01/09 02:13:44;;;;;;;;;;;;;;;12.97;77.45;99038.06;1048951;28;1910;-66
2023/01/09 02:14:34;;;;;;;;;;;;;;;12.96;76.87;99031.03;1048620;28;695;-66
2023/01/09 02:15:25;;;;;;;;;;;;;;;12.95;76.99;99036.53;1044625;28;1143;-66
2023/01/09 02:16:15;;;;;;;;;;;;;;;12.96;77.45;99032.88;1053153;28;652;-67
2023/01/09 02:17:06;;;;;;;;;;;;;;;12.95;77.25;99044.56;1048496;28;662;-67
2023/01/09 02:17:56;;;;;;;;;;;;;;;12.97;77.25;99039.88;1048868;28;709;-67
2023/01/09 02:18:47;;;;;;;;;;;;;;;12.95;76.74;99033.84;1052440;28;1194;-66
2023/01/09 02:19:37;;;;;;;;;;;;;;;12.96;77.39;99038.22;1052222;28;697;-66
2023/01/09 02:20:27;;;;;;;;;;;;;;;12.96;76.71;99041.72;1048435;28;697;-66
2023/01/09 02:21:18;;;;;;;;;;;;;;;12.95;77.00;99042.72;1050881;28;688;-66
2023/01/09 02:22:08;;;;;;;;;;;;;;;12.94;76.87;99034.84;1051819;28;1556;-66
2023/01/09 02:22:59;;;;;;;;;;;;;;;12.94;77.63;99035.69;1047742;28;677;-67
2023/01/09 02:23:49;;;;;;;;;;;;;;;12.94;77.45;99037.53;1049232;28;1155;-66
2023/01/09 02:24:40;;;;;;;;;;;;;;;12.93;77.08;99030.50;1052068;28;702;-66
2023/01/09 02:25:30;;;;;;;;;;;;;;;12.96;77.03;99030.19;1049127;28;661;-66
2023/01/09 02:26:21;;;;;;;;;;;;;;;12.96;76.64;99032.88;1051728;28;774;-66
2023/01/09 02:27:11;;;;;;;;;;;;;;;12.96;76.84;99030.19;1051924;28;1267;-66
2023/01/09 02:28:01;;;;;;;;;;;;;;;12.96;77.28;99027.50;1048367;28;701;-66
2023/01/09 02:28:52;;;;;;;;;;;;;;;12.96;76.89;99030.19;1050980;28;1205;-66
2023/01/09 02:29:42;;;;;;;;;;;;;;;12.96;76.99;99019.50;1048911;28;661;-66
2023/01/09 02:30:33;;;;;;;;;;;;;;;12.95;77.21;99025.84;1049890;28;1005;-66
2023/01/09 02:31:23;;;;;;;;;;;;;;;12.95;77.17;99021.31;1049051;28;877;-66
2023/01/09 02:32:14;;;;;;;;;;;;;;;12.96;77.39;99016.81;1051932;28;677;-66
2023/01/09 02:33:04;;;;;;;;;;;;;;;12.97;76.80;99021.16;1044122;28;670;-66
2023/01/09 02:33:54;;;;;;;;;;;;;;;12.98;76.86;99017.50;1043968;28;1957;-66
2023/01/09 02:34:45;;;;;;;;;;;;;;;12.95;76.62;99020.50;1053203;28;716;-66
2023/01/09 02:35:35;;;;;;;;;;;;;;;12.95;77.09;99025.84;1049748;28;696;-66
2023/01/09 02:36:26;;;;;;;;;;;;;;;12.93;76.76;99027.81;1052093;28;677;-66
2023/01/09 02:37:16;;;;;;;;;;;;;;;12.91;77.45;99024.47;1051741;28;705;-66
2023/01/09 02:38:07;;;;;;;;;;;;;;;12.92;77.06;99032.34;1052056;28;715;-66
2023/01/09 02:38:57;;;;;;;;;;;;;;;12.93;77.01;99022.47;1051967;28;1213;-66
2023/01/09 02:39:48;;;;;;;;;;;;;;;12.93;77.22;99026.00;1051881;28;630;-66
2023/01/09 02:40:38;;;;;;;;;;;;;;;12.95;76.86;99015.13;1051229;28;908;-66
2023/01/09 02:41:28;;;;;;;;;;;;;;;12.96;76.84;99027.50;1051800;28;673;-66
2023/01/09 02:42:19;;;;;;;;;;;;;;;12.95;76.90;99021.31;1051905;28;673;-66
2023/01/09 02:43:09;;;;;;;;;;;;;;;12.96;76.88;99016.81;1051862;28;638;-66
2023/01/09 02:44:00;;;;;;;;;;;;;;;12.95;76.88;99021.31;1051168;28;1071;-66
2023/01/09 02:44:50;;;;;;;;;;;;;;;12.94;77.27;99021.47;1051334;28;888;-66
2023/01/09 02:45:41;;;;;;;;;;;;;;;12.96;76.76;99027.50;1052084;28;1076;-67
2023/01/09 02:46:31;;;;;;;;;;;;;;;12.95;76.75;99025.84;1052559;28;1568;-66
2023/01/09 02:47:22;;;;;;;;;;;;;;;12.93;77.23;99026.00;1048959;28;696;-66
2023/01/09 02:48:13;;;;;;;;;;;;;;;12.95;77.48;99023.16;1049735;28;1072;-66
2023/01/09 02:49:03;;;;;;;;;;;;;;;12.93;77.31;99019.81;1048488;28;665;-66
2023/01/09 02:49:53;;;;;;;;;;;;;;;12.91;77.60;99029.81;1051746;28;1170;-66
2023/01/09 02:50:44;;;;;;;;;;;;;;;12.89;77.41;99031.84;1048890;28;613;-66
2023/01/09 02:51:34;;;;;;;;;;;;;;;12.88;77.26;99030.16;1050197;28;1159;-66
2023/01/09 02:52:25;;;;;;;;;;;;;;;12.87;77.25;99034.66;1051898;28;634;-66
2023/01/09 02:53:15;;;;;;;;;;;;;;;12.88;77.43;99033.66;1050730;28;698;-66
2023/01/09 02:54:05;;;;;;;;;;;;;;;12.90;77.41;99033.53;1052357;28;1902;-65
2023/01/09 02:54:56;;;;;;;;;;;;;;;12.88;77.24;99030.16;1052250;28;1123;-66
2023/01/09 02:55:46;;;;;;;;;;;;;;;12.88;77.65;99024.81;1051829;28;641;-66
2023/01/09 02:56:37;;;;;;;;;;;;;;;12.86;77.55;99022.28;1051519;28;1540;-66
2023/01/09 02:57:27;;;;;;;;;;;;;;;12.90;77.15;99025.50;1053157;28;629;-66
2023/01/09 02:58:18;;;;;;;;;;;;;;;12.89;77.33;99021.16;1051475;28;698;-66
2023/01/09 02:59:08;;;;;;;;;;;;;;;12.85;77.14;99023.28;1051651;28;688;-66
2023/01/09 02:59:58;;;;;;;;;;;;;;;12.85;77.19;99018.78;1051620;28;1223;-66
2023/01/09 03:00:49;;;;;;;;;;;;;;;12.88;77.65;99030.16;1052417;28;1210;-66
2023/01/09 03:01:39;;;;;;;;;;;;;;;12.84;77.69;99022.44;1051703;28;821;-67
2023/01/09 03:02:33;;;;;;;;;;;;;;;12.88;77.25;99017.63;1048334;28;1066;-67
2023/01/09 03:03:24;;;;;;;;;;;;;;;12.87;77.56;99021.31;1044669;28;680;-66
2023/01/09 03:04:14;;;;;;;;;;;;;;;12.87;77.82;99021.31;1049219;28;1123;-66
2023/01/09 03:05:04;;;;;;;;;;;;;;;12.88;76.80;99022.13;1048264;28;701;-66
2023/01/09 03:05:56;;;;;;;;;;;;;;;12.87;77.27;99018.63;1051473;28;732;-66
2023/01/09 03:06:46;;;;;;;;;;;;;;;12.87;76.98;99018.63;1051018;28;1580;-67
2023/01/09 03:07:36;;;;;;;;;;;;;;;12.85;77.10;99021.47;1051121;28;687;-66
2023/01/09 03:08:27;;;;;;;;;;;;;;;12.84;76.98;99019.78;1052514;28;641;-65
2023/01/09 03:09:19;;;;;;;;;;;;;;;12.85;77.08;99024.13;1051712;28;648;-67
2023/01/09 03:10:09;;;;;;;;;;;;;;;12.86;77.22;99028.47;1052453;28;1175;-67
2023/01/09 03:11:00;;;;;;;;;;;;;;;12.85;77.19;99026.81;1051728;28;694;-67
2023/01/09 03:11:50;;;;;;;;;;;;;;;12.84;77.24;99025.13;1049469;28;703;-66
2023/01/09 03:12:40;;;;;;;;;;;;;;;12.82;77.18;99026.28;1048114;28;791;-66
2023/01/09 03:13:31;;;;;;;;;;;;;;;12.81;77.12;99019.25;1050796;28;1183;-67
2023/01/09 03:14:21;;;;;;;;;;;;;;;12.80;77.86;99021.09;1052128;28;706;-67
2023/01/09 03:15:12;;;;;;;;;;;;;;;12.80;77.26;99023.75;1051611;28;1531;-66
2023/01/09 03:16:02;;;;;;;;;;;;;;;12.82;76.88;99021.78;1052460;28;860;-67
2023/01/09 03:16:53;;;;;;;;;;;;;;;12.82;77.55;99023.59;1051583;28;1178;-66
2023/01/09 03:17:43;;;;;;;;;;;;;;;12.83;77.81;99022.59;1048209;28;692;-67
2023/01/09 03:18:34;;;;;;;;;;;;;;;12.81;77.58;99025.44;1050168;28;1201;-67
2023/01/09 03:19:24;;;;;;;;;;;;;;;12.81;77.66;99020.09;1048221;28;866;-67
2023/01/09 03:20:15;;;;;;;;;;;;;;;12.81;77.51;99022.75;1049315;28;1183;-66
2023/01/09 03:21:05;;;;;;;;;;;;;;;12.82;77.02;99024.44;1048388;28;697;-66
2023/01/09 03:21:56;;;;;;;;;;;;;;;12.84;77.59;99019.78;1047651;28;643;-66
2023/01/09 03:22:46;;;;;;;;;;;;;;;12.85;77.52;99018.78;1051990;28;653;-66
2023/01/09 03:23:36;;;;;;;;;;;;;;;12.85;77.71;99020.63;1052949;28;741;-67
2023/01/09 03:24:27;;;;;;;;;;;;;;;12.85;77.38;99013.44;1048413;28;1163;-67
2023/01/09 03:25:17;;;;;;;;;;;;;;;12.88;77.59;99016.78;1048881;28;1714;-67
2023/01/09 03:26:08;;;;;;;;;;;;;;;12.88;77.25;99014.13;1051641;28;1206;-67
2023/01/09 03:26:58;;;;;;;;;;;;;;;12.88;77.54;99014.97;1051862;28;1430;-67
2023/01/09 03:27:49;;;;;;;;;;;;;;;12.89;77.11;99018.47;1047501;28;652;-67
2023/01/09 03:28:39;;;;;;;;;;;;;;;12.90;77.16;99012.13;1048435;28;1008;-67
2023/01/09 03:29:30;;;;;;;;;;;;;;;12.89;77.32;99013.13;1051664;28;689;-67
2023/01/09 03:30:21;;;;;;;;;;;;;;;12.90;77.30;99012.94;1051826;28;710;-67
2023/01/09 03:31:11;;;;;;;;;;;;;;;12.90;77.10;99009.47;1052018;28;685;-66
2023/01/09 03:32:02;;;;;;;;;;;;;;;12.90;77.41;99012.13;1052266;28;746;-66
2023/01/09 03:32:52;;;;;;;;;;;;;;;12.86;77.52;99011.59;1051834;28;1205;-67
2023/01/09 03:33:43;;;;;;;;;;;;;;;12.84;77.74;99014.44;1048102;28;1906;-66
2023/01/09 03:34:33;;;;;;;;;;;;;;;12.85;77.00;99021.47;1052139;28;1230;-66
2023/01/09 03:35:24;;;;;;;;;;;;;;;12.86;77.03;99016.94;1051226;28;1668;-66
2023/01/09 03:36:14;;;;;;;;;;;;;;;12.86;77.26;99016.94;1048851;28;767;-66
2023/01/09 03:37:04;;;;;;;;;;;;;;;12.87;77.66;99015.94;1048232;28;733;-66
2023/01/09 03:37:55;;;;;;;;;;;;;;;12.88;77.39;99017.63;1051842;28;697;-66
2023/01/09 03:38:45;;;;;;;;;;;;;;;12.86;77.20;99012.44;1048885;28;650;-66
2023/01/09 03:39:36;;;;;;;;;;;;;;;12.86;76.91;99017.78;1051617;28;1210;-66
2023/01/09 03:40:26;;;;;;;;;;;;;;;12.87;76.90;99018.63;1051924;28;1194;-66
2023/01/09 03:41:18;;;;;;;;;;;;;;;12.85;77.08;99008.09;1051800;28;733;-66
2023/01/09 03:42:08;;;;;;;;;;;;;;;12.86;77.44;99012.44;1052294;28;1154;-66
2023/01/09 03:42:58;;;;;;;;;;;;;;;12.85;77.50;99012.59;1051210;28;751;-66
2023/01/09 03:43:49;;;;;;;;;;;;;;;12.85;77.00;99010.75;1051857;28;631;-66
2023/01/09 03:44:39;;;;;;;;;;;;;;;12.89;76.84;99010.44;1052046;28;1019;-66
2023/01/09 03:45:30;;;;;;;;;;;;;;;12.89;77.50;99010.44;1047929;28;1494;-66
2023/01/09 03:46:20;;;;;;;;;;;;;;;12.89;77.31;99021.16;1051229;28;666;-67
2023/01/09 03:47:11;;;;;;;;;;;;;;;12.88;77.09;99014.97;1051841;28;706;-67
2023/01/09 03:48:01;;;;;;;;;;;;;;;12.85;77.72;99021.47;1051704;28;1255;-66
2023/01/09 03:48:52;;;;;;;;;;;;;;;12.85;77.03;99021.47;1051805;28;598;-66
2023/01/09 03:49:42;;;;;;;;;;;;;;;12.86;77.62;99020.47;1045102;28;1083;-67
2023/01/09 03:50:32;;;;;;;;;;;;;;;12.85;77.13;99026.81;1049005;28;895;-67
2023/01/09 03:51:23;;;;;;;;;;;;;;;12.85;77.59;99021.47;1052582;28;1175;-67
2023/01/09 03:52:13;;;;;;;;;;;;;;;12.85;77.54;99015.28;1052289;28;1126;-66
2023/01/09 03:53:04;;;;;;;;;;;;;;;12.87;77.20;99026.66;1048202;28;753;-66
2023/01/09 03:53:54;;;;;;;;;;;;;;;12.88;76.66;99016.78;1051229;28;1901;-66
2023/01/09 03:54:44;;;;;;;;;;;;;;;12.86;77.31;99023.13;1048909;28;789;-66
2023/01/09 03:55:35;;;;;;;;;;;;;;;12.84;77.66;99022.44;1051050;28;981;-67
2023/01/09 03:56:25;;;;;;;;;;;;;;;12.86;77.04;99024.97;1049022;28;645;-67
2023/01/09 03:57:16;;;;;;;;;;;;;;;12.88;76.87;99022.97;1050854;28;1238;-66
2023/01/09 03:58:06;;;;;;;;;;;;;;;12.89;77.35;99029.16;1052828;28;619;-67
2023/01/09 03:58:57;;;;;;;;;;;;;;;12.89;77.49;99031.84;1052451;28;717;-66
2023/01/09 03:59:47;;;;;;;;;;;;;;;12.88;76.92;99030.16;1052710;28;717;-67
2023/01/09 04:00:39;;;;;;;;;;;;;;;12.87;77.35;99034.66;1052406;28;709;-66
2023/01/09 04:01:29;;;;;;;;;;;;;;;12.88;77.13;99027.50;1052640;28;1166;-67
2023/01/09 04:02:20;;;;;;;;;;;;;;;12.89;77.55;99031.84;1052535;28;1231;-67
2023/01/09 04:03:10;;;;;;;;;;;;;;;12.85;77.07;99026.81;1052719;28;641;-66
2023/01/09 04:04:01;;;;;;;;;;;;;;;12.88;76.96;99027.50;1053087;28;710;-67
2023/01/09 04:04:51;;;;;;;;;;;;;;;12.86;77.78;99022.28;1052659;28;697;-67
2023/01/09 04:05:41;;;;;;;;;;;;;;;12.86;77.63;99028.47;1052972;28;679;-67
2023/01/09 04:06:32;;;;;;;;;;;;;;;12.84;76.87;99030.47;1052641;28;712;-66
2023/01/09 04:07:22;;;;;;;;;;;;;;;12.82;77.81;99027.13;1049587;28;638;-67
2023/01/09 04:08:13;;;;;;;;;;;;;;;12.82;76.89;99029.78;1049559;28;649;-67
2023/01/09 04:09:03;;;;;;;;;;;;;;;12.82;77.47;99035.13;1047328;28;1127;-67
2023/01/09 04:09:54;;;;;;;;;;;;;;;12.81;77.63;99028.09;1049773;28;626;-67
2023/01/09 04:10:44;;;;;;;;;;;;;;;12.80;77.62;99038.97;1050712;28;1139;-67
2023/01/09 04:11:35;;;;;;;;;;;;;;;12.79;77.39;99032.78;1052381;28;610;-67
2023/01/09 04:12:25;;;;;;;;;;;;;;;12.78;77.64;99028.41;1049150;28;701;-67
2023/01/09 04:13:16;;;;;;;;;;;;;;;12.79;77.47;99035.44;1049177;28;654;-67
2023/01/09 04:14:06;;;;;;;;;;;;;;;12.79;77.83;99031.94;1052443;28;1914;-67
2023/01/09 04:14:57;;;;;;;;;;;;;;;12.79;77.19;99035.44;1052461;28;690;-67
2023/01/09 04:15:47;;;;;;;;;;;;;;;12.77;77.00;99029.41;1052090;28;1008;-67
2023/01/09 04:16:37;;;;;;;;;;;;;;;12.75;77.10;99031.41;1052316;28;734;-67
2023/01/09 04:17:28;;;;;;;;;;;;;;;12.77;77.21;99031.25;1052434;28;618;-67
2023/01/09 04:18:19;;;;;;;;;;;;;;;12.76;77.14;99033.09;1052111;28;1153;-67
2023/01/09 04:19:10;;;;;;;;;;;;;;;12.76;77.35;99029.56;1052460;28;1210;-66
2023/01/09 04:20:00;;;;;;;;;;;;;;;12.78;77.97;99030.25;1052495;28;945;-67
2023/01/09 04:20:51;;;;;;;;;;;;;;;12.78;78.07;99030.25;1052411;28;668;-67
2023/01/09 04:21:41;;;;;;;;;;;;;;;12.77;77.22;99032.09;1052476;28;754;-67
2023/01/09 04:22:31;;;;;;;;;;;;;;;12.77;77.17;99028.56;1053666;28;660;-67
2023/01/09 04:23:22;;;;;;;;;;;;;;;12.77;77.87;99029.41;1049532;28;700;-67
2023/01/09 04:24:12;;;;;;;;;;;;;;;12.74;77.50;99028.88;1048995;28;728;-67
2023/01/09 04:25:03;;;;;;;;;;;;;;;12.75;77.96;99030.56;1048214;28;694;-67
2023/01/09 04:25:53;;;;;;;;;;;;;;;12.75;77.50;99026.06;1052513;28;634;-66
2023/01/09 04:26:44;;;;;;;;;;;;;;;12.74;77.75;99023.53;1049435;28;614;-67
2023/01/09 04:27:34;;;;;;;;;;;;;;;12.75;77.39;99031.41;1048357;28;624;-66
2023/01/09 04:28:24;;;;;;;;;;;;;;;12.75;77.93;99020.72;1052261;28;1083;-67
2023/01/09 04:29:15;;;;;;;;;;;;;;;12.73;77.84;99025.38;1049038;28;785;-66
2023/01/09 04:30:05;;;;;;;;;;;;;;;12.71;77.18;99030.06;1047879;28;1203;-67
2023/01/09 04:30:56;;;;;;;;;;;;;;;12.72;77.82;99025.56;1053566;28;688;-67
2023/01/09 04:31:46;;;;;;;;;;;;;;;12.73;77.16;99028.03;1052334;28;1135;-66